Time;durP1;ratioP1;P1;durP2;ratioP2;P2;SDS_P1;SDS_P2;PMS_P1;PMS_P2;Temp;Humidity;BMP_temperature;BMP_pressure;BME280_temperature;BME280_humidity;BME280_pressure;Samples;Min_cycle;Max_cycle;Signal;HPM_P1;HPM_P2
2023/06/29 00:01:11;;;;;;;10.82;7.43;;;20.30;87.70;;;;;;10450704;28;20017;-68
2023/06/29 00:06:11;;;;;;;10.70;6.55;;;20.30;87.80;;;;;;10452130;28;20029;-68
2023/06/29 00:11:12;;;;;;;10.80;7.30;;;20.20;87.80;;;;;;10443823;28;20055;-68
2023/06/29 00:16:12;;;;;;;11.02;6.90;;;20.20;87.80;;;;;;10455709;28;20039;-68
2023/06/29 00:21:13;;;;;;;14.52;8.27;;;20.20;87.90;;;;;;10441678;28;20190;-68
2023/06/29 00:26:14;;;;;;;12.70;6.85;;;20.20;88.00;;;;;;10446903;28;20452;-67
2023/06/29 00:31:14;;;;;;;12.40;7.40;;;20.20;88.10;;;;;;10450373;28;20021;-68
2023/06/29 00:36:15;;;;;;;12.77;6.70;;;20.20;88.10;;;;;;10447246;28;20537;-67
2023/06/29 00:41:15;;;;;;;9.90;7.10;;;20.20;88.20;;;;;;10447219;28;20031;-68
2023/06/29 00:46:18;;;;;;;11.43;7.93;;;20.20;88.20;;;;;;10447580;28;20082;-68
2023/06/29 00:51:19;;;;;;;13.60;7.63;;;20.30;88.50;;;;;;10447650;28;20029;-67
2023/06/29 00:56:20;;;;;;;13.48;7.10;;;20.20;88.50;;;;;;10454933;28;20025;-67
2023/06/29 01:01:20;;;;;;;13.88;7.57;;;20.20;88.50;;;;;;10454880;28;20082;-68
2023/06/29 01:06:27;;;;;;;10.55;7.18;;;20.20;88.60;;;;;;10456936;28;20519;-68
2023/06/29 01:11:27;;;;;;;10.70;7.10;;;20.20;88.70;;;;;;10462865;28;20025;-68
2023/06/29 01:16:32;;;;;;;12.70;7.32;;;20.20;88.70;;;;;;10454719;28;20055;-68
2023/06/29 01:21:39;;;;;;;12.20;7.32;;;20.20;88.70;;;;;;10449934;28;20029;-68
2023/06/29 01:26:40;;;;;;;14.65;8.18;;;20.20;88.70;;;;;;10456773;28;20435;-68
2023/06/29 01:31:40;;;;;;;12.95;7.88;;;20.20;88.70;;;;;;10447196;28;20021;-68
2023/06/29 01:36:45;;;;;;;11.50;7.90;;;20.20;88.90;;;;;;10446861;28;20051;-68
2023/06/29 01:41:47;;;;;;;11.15;7.13;;;20.20;89.10;;;;;;10437513;28;20061;-68
2023/06/29 01:46:48;;;;;;;12.63;7.43;;;20.20;89.10;;;;;;10447406;28;20024;-68
2023/06/29 01:51:49;;;;;;;11.93;7.20;;;20.20;89.10;;;;;;10450572;28;20429;-67
2023/06/29 01:56:50;;;;;;;13.35;7.25;;;20.20;89.10;;;;;;10443820;28;20063;-68
2023/06/29 02:01:50;;;;;;;12.10;7.95;;;20.20;89.10;;;;;;10439705;28;20043;-68
2023/06/29 02:06:51;;;;;;;10.50;7.18;;;20.20;89.20;;;;;;10444657;28;20055;-67
2023/06/29 02:11:52;;;;;;;14.38;7.80;;;20.20;89.20;;;;;;10440072;28;20029;-67
2023/06/29 02:16:53;;;;;;;12.27;7.65;;;20.20;89.40;;;;;;10457628;28;20469;-67
2023/06/29 02:21:56;;;;;;;13.63;8.25;;;20.20;89.40;;;;;;10444686;28;20264;-68
2023/06/29 02:26:56;;;;;;;12.52;7.45;;;20.20;90.00;;;;;;10454738;28;20527;-67
2023/06/29 02:31:57;;;;;;;11.68;7.28;;;20.20;89.60;;;;;;10446869;28;20036;-68
2023/06/29 02:36:58;;;;;;;11.70;7.22;;;20.10;89.60;;;;;;10436824;28;20094;-67
2023/06/29 02:41:58;;;;;;;14.05;7.50;;;20.10;89.60;;;;;;10432714;28;20023;-68
2023/06/29 02:46:59;;;;;;;11.98;7.47;;;20.10;89.60;;;;;;10442102;28;20025;-68
2023/06/29 02:51:59;;;;;;;11.60;7.32;;;20.10;89.60;;;;;;10443032;28;20078;-68
2023/06/29 02:57:00;;;;;;;13.15;7.53;;;20.10;89.60;;;;;;10443547;28;20397;-68
2023/06/29 03:02:01;;;;;;;10.93;7.18;;;20.10;89.70;;;;;;10447955;28;20029;-68
2023/06/29 03:07:12;;;;;;;12.75;7.55;;;20.20;89.80;;;;;;10452102;28;20061;-68
2023/06/29 03:12:12;;;;;;;13.82;7.85;;;20.10;89.90;;;;;;10448097;28;20549;-68
2023/06/29 03:17:14;;;;;;;11.50;7.68;;;20.10;90.00;;;;;;10439492;28;20027;-68
2023/06/29 03:22:15;;;;;;;11.77;8.23;;;20.10;90.00;;;;;;10444389;28;20021;-68
2023/06/29 03:27:15;;;;;;;17.13;8.63;;;20.10;90.00;;;;;;10440159;28;20392;-68
2023/06/29 03:32:16;;;;;;;11.70;7.63;;;20.20;90.10;;;;;;10440552;28;20023;-68
2023/06/29 03:37:16;;;;;;;12.52;7.78;;;20.10;90.10;;;;;;10431907;28;20049;-68
2023/06/29 03:42:17;;;;;;;15.00;8.57;;;20.20;90.20;;;;;;10447125;28;20048;-68
2023/06/29 03:47:18;;;;;;;16.23;8.15;;;20.10;90.20;;;;;;10445615;28;20025;-67
2023/06/29 03:52:19;;;;;;;12.65;7.40;;;20.10;90.20;;;;;;10445705;28;20027;-67
2023/06/29 03:57:19;;;;;;;11.68;7.43;;;20.10;90.20;;;;;;10449909;28;20120;-68
2023/06/29 04:02:20;;;;;;;14.02;8.80;;;20.10;90.20;;;;;;10445583;28;20024;-68
2023/06/29 04:07:20;;;;;;;11.02;7.45;;;20.10;90.30;;;;;;10452351;28;20028;-68
2023/06/29 04:12:21;;;;;;;14.73;8.30;;;20.10;90.30;;;;;;10443518;28;20042;-68
2023/06/29 04:17:22;;;;;;;11.82;7.68;;;20.10;90.30;;;;;;10445986;28;20031;-68
2023/06/29 04:22:22;;;;;;;15.00;8.60;;;20.10;90.30;;;;;;10448327;28;20029;-68
2023/06/29 04:27:23;;;;;;;14.88;8.57;;;20.20;90.40;;;;;;10439333;28;20025;-68
2023/06/29 04:32:23;;;;;;;14.68;8.27;;;20.10;90.40;;;;;;10438381;28;20522;-68
2023/06/29 04:37:24;;;;;;;14.27;8.40;;;20.10;90.30;;;;;;10455232;28;20021;-68
2023/06/29 04:42:25;;;;;;;12.10;7.95;;;20.10;90.30;;;;;;10454480;28;20025;-68
2023/06/29 04:47:32;;;;;;;15.18;9.07;;;20.20;90.40;;;;;;10453127;28;20420;-68
2023/06/29 04:52:36;;;;;;;15.90;8.65;;;20.10;90.40;;;;;;10450340;28;20140;-67
2023/06/29 04:57:37;;;;;;;13.38;7.60;;;20.20;90.40;;;;;;10455340;28;20780;-68
2023/06/29 05:02:38;;;;;;;14.82;8.27;;;20.20;90.50;;;;;;10444912;28;20560;-68
2023/06/29 05:07:39;;;;;;;12.82;8.02;;;20.20;90.40;;;;;;10455751;28;20021;-68
2023/06/29 05:12:39;;;;;;;11.93;7.90;;;20.20;90.40;;;;;;10441528;28;20566;-67
2023/06/29 05:17:40;;;;;;;12.63;8.07;;;20.20;90.40;;;;;;10442691;28;20070;-68
2023/06/29 05:22:41;;;;;;;12.45;7.75;;;20.20;90.40;;;;;;10452075;28;20044;-68
2023/06/29 05:27:42;;;;;;;14.05;7.35;;;20.20;90.40;;;;;;10446632;28;20030;-68
2023/06/29 05:32:43;;;;;;;13.52;7.40;;;20.20;90.40;;;;;;10454210;28;20501;-68
2023/06/29 05:37:47;;;;;;;13.55;7.90;;;20.20;90.60;;;;;;10461051;28;20016;-68
2023/06/29 05:42:47;;;;;;;12.98;7.47;;;20.20;90.30;;;;;;10456739;28;20028;-68
2023/06/29 05:47:48;;;;;;;13.80;7.85;;;20.20;90.30;;;;;;10457259;28;20385;-67
2023/06/29 05:52:49;;;;;;;11.60;7.50;;;20.20;90.20;;;;;;10449209;28;20512;-67
2023/06/29 05:57:49;;;;;;;10.30;6.80;;;20.20;90.20;;;;;;10451291;28;20033;-68
2023/06/29 06:02:50;;;;;;;12.52;7.75;;;20.20;90.20;;;;;;10438325;28;20037;-68
2023/06/29 06:07:50;;;;;;;12.80;7.72;;;20.20;90.10;;;;;;10438026;28;20021;-68
2023/06/29 06:12:51;;;;;;;11.98;7.70;;;20.20;90.10;;;;;;10456597;28;20113;-68
2023/06/29 06:17:52;;;;;;;12.07;7.43;;;20.20;90.10;;;;;;10447697;28;20029;-68
2023/06/29 06:22:52;;;;;;;11.63;7.25;;;20.20;90.10;;;;;;10440348;28;20111;-67
2023/06/29 06:27:53;;;;;;;11.23;7.47;;;20.20;90.10;;;;;;10447745;28;20032;-67
2023/06/29 06:32:57;;;;;;;11.43;7.97;;;20.20;90.10;;;;;;10447627;28;20025;-68
2023/06/29 06:37:57;;;;;;;11.00;8.13;;;20.20;90.10;;;;;;10436289;28;20468;-67
2023/06/29 06:42:58;;;;;;;13.40;7.88;;;20.20;90.10;;;;;;10451361;28;20025;-68
2023/06/29 06:47:58;;;;;;;12.27;7.78;;;20.20;90.10;;;;;;10440195;28;20047;-68
2023/06/29 06:53:00;;;;;;;12.13;7.68;;;20.20;90.10;;;;;;10436745;28;20045;-68
2023/06/29 06:58:00;;;;;;;11.30;7.55;;;20.20;90.10;;;;;;10428813;28;20076;-68
2023/06/29 07:03:01;;;;;;;11.07;7.60;;;20.30;90.10;;;;;;10435518;28;20140;-67
2023/06/29 07:08:01;;;;;;;13.23;8.07;;;20.30;90.10;;;;;;10446898;28;20025;-68
2023/06/29 07:13:02;;;;;;;11.48;8.02;;;20.30;90.10;;;;;;10446828;28;20062;-67
2023/06/29 07:18:03;;;;;;;11.85;7.20;;;20.30;90.10;;;;;;10436755;28;20024;-67
2023/06/29 07:23:03;;;;;;;14.75;8.82;;;20.40;90.00;;;;;;10434069;28;20041;-68
2023/06/29 07:28:04;;;;;;;12.80;7.85;;;20.40;90.10;;;;;;10444475;28;20032;-68
2023/06/29 07:33:05;;;;;;;13.23;8.45;;;20.40;90.10;;;;;;10438513;28;20116;-68
2023/06/29 07:38:05;;;;;;;12.40;7.55;;;20.50;90.10;;;;;;10438154;28;20038;-68
2023/06/29 07:43:06;;;;;;;14.00;8.98;;;20.40;90.00;;;;;;10446412;28;20465;-68
2023/06/29 07:48:06;;;;;;;14.20;8.50;;;20.40;90.00;;;;;;10440122;28;20406;-68
2023/06/29 07:53:07;;;;;;;13.93;9.30;;;20.50;90.00;;;;;;10436295;28;20400;-68
2023/06/29 07:58:08;;;;;;;16.40;9.73;;;20.60;90.00;;;;;;10437646;28;20060;-68
2023/06/29 08:03:09;;;;;;;13.85;8.73;;;20.50;90.00;;;;;;10440189;28;20041;-67
2023/06/29 08:08:10;;;;;;;14.52;7.90;;;20.60;90.00;;;;;;10442839;28;20024;-67
2023/06/29 08:13:10;;;;;;;16.25;8.93;;;20.60;90.00;;;;;;10458668;28;20012;-67
2023/06/29 08:18:11;;;;;;;19.08;9.52;;;20.50;90.00;;;;;;10445242;28;20362;-66
2023/06/29 08:23:13;;;;;;;19.08;9.65;;;20.60;90.00;;;;;;10443605;28;20107;-66
2023/06/29 08:28:13;;;;;;;15.88;8.60;;;20.60;90.10;;;;;;10444073;28;20029;-66
2023/06/29 08:33:14;;;;;;;16.08;8.90;;;20.60;90.10;;;;;;10445109;28;20024;-66
2023/06/29 08:38:15;;;;;;;16.05;8.80;;;20.60;90.10;;;;;;10451818;28;20035;-66
2023/06/29 08:43:17;;;;;;;15.45;8.65;;;20.60;90.10;;;;;;10448103;28;20021;-66
2023/06/29 08:48:19;;;;;;;13.82;8.50;;;20.70;90.10;;;;;;10446956;28;20151;-66
2023/06/29 08:53:20;;;;;;;14.88;8.93;;;20.70;90.00;;;;;;10448982;28;20027;-66
2023/06/29 08:58:22;;;;;;;14.85;8.68;;;20.70;90.10;;;;;;10447938;28;20025;-66
2023/06/29 09:03:25;;;;;;;14.45;9.23;;;20.70;90.10;;;;;;10439606;28;20044;-67
2023/06/29 09:08:26;;;;;;;15.70;8.80;;;20.70;90.10;;;;;;10450470;28;20056;-68
2023/06/29 09:13:27;;;;;;;16.17;9.35;;;20.70;90.10;;;;;;10447549;28;20040;-65
2023/06/29 09:18:28;;;;;;;14.60;8.75;;;20.70;90.10;;;;;;10441593;28;20114;-67
2023/06/29 09:23:28;;;;;;;15.25;8.85;;;20.70;90.10;;;;;;10449785;28;20077;-66
2023/06/29 09:28:35;;;;;;;16.05;9.10;;;20.70;90.10;;;;;;10449937;28;20030;-66
2023/06/29 09:33:35;;;;;;;16.52;9.82;;;20.80;90.00;;;;;;10448713;28;20027;-66
2023/06/29 09:38:37;;;;;;;15.35;9.10;;;20.80;90.00;;;;;;10445426;28;20409;-67
2023/06/29 09:43:40;;;;;;;17.05;9.15;;;20.80;90.00;;;;;;10446551;28;20017;-65
2023/06/29 09:48:48;;;;;;;15.43;9.25;;;20.80;90.00;;;;;;10452593;28;20033;-67
2023/06/29 09:53:48;;;;;;;18.25;10.73;;;20.90;90.10;;;;;;10443859;28;20028;-66
2023/06/29 09:58:49;;;;;;;17.95;9.68;;;20.90;90.10;;;;;;10449704;28;20310;-65
2023/06/29 10:03:50;;;;;;;20.90;10.43;;;20.90;90.10;;;;;;10443635;28;20043;-67
2023/06/29 10:08:56;;;;;;;14.52;9.48;;;20.90;90.10;;;;;;10443259;28;20540;-66
2023/06/29 10:14:04;;;;;;;16.83;9.15;;;21.00;90.10;;;;;;10449116;28;20021;-66
2023/06/29 10:19:14;;;;;;;14.00;8.43;;;21.00;90.10;;;;;;10444474;28;20500;-67
2023/06/29 10:24:18;;;;;;;27.55;9.60;;;21.00;90.10;;;;;;10454804;28;20040;-66
2023/06/29 10:29:19;;;;;;;16.92;9.73;;;21.00;90.10;;;;;;10446206;28;20051;-67
2023/06/29 10:34:19;;;;;;;16.92;9.68;;;21.10;90.10;;;;;;10443168;28;20024;-66
2023/06/29 10:39:40;;;;;;;17.70;9.98;;;21.10;90.00;;;;;;10439334;28;20485;-66
2023/06/29 10:44:45;;;;;;;18.35;9.82;;;21.20;90.10;;;;;;10451335;28;20422;-66
2023/06/29 10:49:46;;;;;;;18.50;10.27;;;21.30;90.00;;;;;;10439129;28;20021;-67
2023/06/29 10:55:12;;;;;;;17.92;10.15;;;21.30;90.00;;;;;;10450801;28;20051;-66
2023/06/29 11:00:14;;;;;;;16.55;9.93;;;21.50;90.10;;;;;;10446011;28;20024;-66
2023/06/29 11:05:17;;;;;;;19.55;10.52;;;21.50;89.90;;;;;;10445625;28;20465;-66
2023/06/29 11:10:21;;;;;;;18.58;10.40;;;21.50;90.00;;;;;;10447133;28;20476;-66
2023/06/29 11:15:23;;;;;;;20.27;11.25;;;21.60;90.00;;;;;;10446683;28;20027;-67
2023/06/29 11:20:29;;;;;;;21.38;11.30;;;21.70;90.00;;;;;;10439629;28;20027;-65
2023/06/29 11:25:30;;;;;;;18.58;10.90;;;21.80;90.00;;;;;;10435667;28;20035;-67
2023/06/29 11:30:30;;;;;;;18.70;10.70;;;21.80;90.00;;;;;;10436497;28;20104;-67
2023/06/29 11:35:31;;;;;;;19.92;10.43;;;21.90;90.00;;;;;;10436968;28;20024;-66
2023/06/29 11:40:32;;;;;;;21.70;11.30;;;21.90;90.00;;;;;;10438591;28;20079;-67
2023/06/29 11:45:33;;;;;;;21.75;11.50;;;21.90;90.00;;;;;;10439928;28;20377;-66
2023/06/29 11:50:36;;;;;;;21.05;12.10;;;22.00;90.00;;;;;;10433850;28;20283;-67
2023/06/29 11:55:37;;;;;;;20.95;11.27;;;22.00;90.00;;;;;;10442248;28;20025;-66
2023/06/29 12:00:38;;;;;;;20.40;11.48;;;22.10;90.00;;;;;;10426391;28;20444;-66
2023/06/29 12:05:41;;;;;;;21.45;11.52;;;22.10;90.00;;;;;;10440872;28;20025;-66
2023/06/29 12:10:41;;;;;;;20.88;11.70;;;22.10;90.00;;;;;;10439772;28;20108;-66
2023/06/29 12:15:44;;;;;;;21.50;11.40;;;22.10;90.00;;;;;;10440666;28;20033;-66
2023/06/29 12:20:47;;;;;;;22.95;11.98;;;22.20;90.00;;;;;;10444690;28;20017;-66
2023/06/29 12:25:51;;;;;;;21.73;12.15;;;22.20;90.10;;;;;;10440974;28;20029;-66
2023/06/29 12:30:52;;;;;;;20.75;12.23;;;22.30;90.10;;;;;;10432056;28;20021;-67
2023/06/29 12:35:53;;;;;;;23.83;12.45;;;22.30;90.00;;;;;;10440998;28;20029;-67
2023/06/29 12:40:53;;;;;;;21.38;11.27;;;22.30;90.00;;;;;;10435247;28;20404;-67
2023/06/29 12:45:54;;;;;;;21.67;12.07;;;22.30;90.00;;;;;;10432085;28;20036;-66
2023/06/29 12:50:59;;;;;;;23.05;11.75;;;22.40;90.00;;;;;;10436152;28;20017;-65
2023/06/29 12:56:00;;;;;;;22.48;11.80;;;22.40;90.00;;;;;;10445541;28;20033;-67
2023/06/29 13:01:01;;;;;;;21.02;11.75;;;22.50;90.00;;;;;;10450833;28;20424;-65
2023/06/29 13:06:02;;;;;;;23.17;12.20;;;22.40;90.00;;;;;;10453863;28;20033;-66
2023/06/29 13:11:04;;;;;;;19.25;11.55;;;22.40;90.00;;;;;;10458714;28;20017;-66
2023/06/29 13:16:05;;;;;;;22.58;11.85;;;22.40;90.00;;;;;;10451112;28;20078;-67
2023/06/29 13:21:06;;;;;;;20.02;12.13;;;22.40;90.10;;;;;;10451484;28;20387;-67
2023/06/29 13:26:06;;;;;;;21.70;10.75;;;22.40;90.10;;;;;;10443991;28;20040;-66
2023/06/29 13:31:07;;;;;;;19.70;11.13;;;22.30;90.20;;;;;;10448641;28;20036;-66
2023/06/29 13:36:07;;;;;;;22.13;11.70;;;22.30;90.40;;;;;;10448912;28;20033;-66
2023/06/29 13:41:08;;;;;;;19.92;11.15;;;22.20;90.40;;;;;;10442249;28;20476;-66
2023/06/29 13:46:09;;;;;;;21.23;11.93;;;22.20;90.60;;;;;;10440708;28;20028;-67
2023/06/29 13:51:09;;;;;;;19.13;10.60;;;22.10;90.60;;;;;;10448471;28;20017;-66
2023/06/29 13:56:10;;;;;;;19.08;11.35;;;22.00;90.70;;;;;;10449896;28;20549;-66
2023/06/29 14:01:10;;;;;;;22.90;11.00;;;22.00;90.80;;;;;;10444027;28;20086;-68
2023/06/29 14:06:12;;;;;;;20.23;11.40;;;22.00;90.80;;;;;;10454082;28;20393;-68
2023/06/29 14:11:13;;;;;;;19.65;11.18;;;21.90;90.90;;;;;;10441009;28;20509;-68
2023/06/29 14:16:13;;;;;;;19.67;10.68;;;21.90;91.00;;;;;;10449662;28;20024;-68
2023/06/29 14:21:14;;;;;;;19.60;10.43;;;21.80;91.00;;;;;;10447119;28;20435;-68
2023/06/29 14:26:16;;;;;;;18.42;10.27;;;21.90;91.00;;;;;;10442109;28;20033;-68
2023/06/29 14:31:17;;;;;;;19.05;10.70;;;21.90;91.00;;;;;;10442633;28;20025;-67
2023/06/29 14:36:18;;;;;;;17.63;9.93;;;21.90;91.00;;;;;;10441772;28;20028;-68
2023/06/29 14:41:19;;;;;;;19.48;9.50;;;21.90;91.00;;;;;;10449265;28;20081;-68
2023/06/29 14:46:20;;;;;;;16.88;10.15;;;22.00;90.90;;;;;;10453098;28;20435;-68
2023/06/29 14:51:20;;;;;;;17.08;10.25;;;22.00;90.90;;;;;;10444460;28;20086;-68
2023/06/29 14:56:21;;;;;;;18.00;10.38;;;22.00;90.90;;;;;;10444556;28;20016;-68
2023/06/29 15:01:22;;;;;;;15.60;9.13;;;22.00;90.90;;;;;;10440285;28;20025;-67
2023/06/29 15:06:22;;;;;;;16.63;9.57;;;22.00;90.90;;;;;;10440243;28;20484;-68
2023/06/29 15:11:23;;;;;;;16.13;9.63;;;22.00;90.80;;;;;;10440331;28;20013;-68
2023/06/29 15:16:24;;;;;;;16.85;9.45;;;22.20;90.70;;;;;;10446291;28;20033;-67
2023/06/29 15:21:25;;;;;;;14.82;8.75;;;22.20;90.70;;;;;;10444303;28;20017;-68
2023/06/29 15:26:26;;;;;;;16.27;9.40;;;22.20;90.60;;;;;;10446931;28;20060;-68
2023/06/29 15:31:26;;;;;;;19.45;9.27;;;22.30;90.60;;;;;;10450184;28;20538;-68
2023/06/29 15:36:27;;;;;;;14.05;8.80;;;22.40;90.50;;;;;;10449548;28;20063;-68
2023/06/29 15:41:28;;;;;;;14.98;8.73;;;22.40;90.50;;;;;;10445630;28;20016;-68
2023/06/29 15:46:29;;;;;;;16.85;9.27;;;22.40;90.40;;;;;;10448851;28;20023;-68
2023/06/29 15:51:30;;;;;;;17.40;8.50;;;22.60;90.30;;;;;;10451737;28;20484;-68
2023/06/29 15:56:30;;;;;;;14.82;8.65;;;22.70;90.20;;;;;;10451692;28;20028;-68
2023/06/29 16:01:31;;;;;;;14.68;8.65;;;22.70;90.10;;;;;;10445070;28;20042;-68
2023/06/29 16:06:32;;;;;;;14.32;8.45;;;22.80;90.20;;;;;;10437127;28;20021;-68
2023/06/29 16:11:33;;;;;;;13.07;7.97;;;22.80;90.10;;;;;;10439188;28;20100;-68
2023/06/29 16:16:33;;;;;;;16.90;7.95;;;22.70;90.10;;;;;;10435718;28;20029;-68
2023/06/29 16:21:34;;;;;;;15.55;8.30;;;22.70;90.20;;;;;;10437288;28;20022;-68
2023/06/29 16:26:34;;;;;;;14.40;7.63;;;22.60;90.20;;;;;;10451588;28;20026;-68
2023/06/29 16:31:35;;;;;;;13.00;7.13;;;22.60;90.30;;;;;;10440417;28;20026;-68
2023/06/29 16:36:36;;;;;;;11.98;7.35;;;22.60;90.30;;;;;;10455853;28;20021;-68
2023/06/29 16:41:37;;;;;;;13.75;8.13;;;22.60;90.40;;;;;;10455225;28;20385;-68
2023/06/29 16:46:38;;;;;;;12.93;7.63;;;22.50;90.40;;;;;;10449109;28;20109;-68
2023/06/29 16:51:39;;;;;;;13.20;7.15;;;22.50;90.50;;;;;;10456372;28;20488;-68
2023/06/29 16:56:39;;;;;;;13.55;7.47;;;22.40;90.60;;;;;;10454383;28;20028;-68
2023/06/29 17:01:40;;;;;;;11.80;7.40;;;22.40;90.90;;;;;;10459503;28;20078;-68
2023/06/29 17:06:41;;;;;;;13.00;7.00;;;22.30;90.70;;;;;;10452776;28;20028;-68
2023/06/29 17:11:43;;;;;;;12.65;6.25;;;22.30;90.70;;;;;;10437704;28;20020;-68
2023/06/29 17:16:43;;;;;;;10.82;6.18;;;22.20;90.80;;;;;;10435513;28;20031;-68
2023/06/29 17:21:44;;;;;;;11.20;5.35;;;22.20;90.90;;;;;;10449890;28;20028;-68
2023/06/29 17:26:45;;;;;;;8.77;5.53;;;22.10;90.90;;;;;;10449224;28;20556;-68
2023/06/29 17:31:46;;;;;;;8.52;4.90;;;22.10;91.00;;;;;;10430158;28;20139;-68
2023/06/29 17:36:46;;;;;;;8.43;5.18;;;22.00;91.30;;;;;;10449944;28;20036;-68
2023/06/29 17:41:47;;;;;;;9.00;5.15;;;22.00;91.10;;;;;;10448142;28;20127;-68
2023/06/29 17:46:47;;;;;;;7.07;4.55;;;21.90;91.10;;;;;;10444739;28;20480;-68
2023/06/29 17:51:48;;;;;;;7.97;4.40;;;21.90;91.10;;;;;;10444663;28;20028;-68
2023/06/29 17:56:49;;;;;;;7.95;4.22;;;21.90;91.20;;;;;;10436930;28;20646;-68
2023/06/29 18:01:49;;;;;;;7.05;3.92;;;21.80;91.20;;;;;;10438253;28;20037;-68
2023/06/29 18:06:50;;;;;;;6.22;3.88;;;21.80;91.20;;;;;;10436798;28;20035;-68
2023/06/29 18:11:56;;;;;;;6.35;3.35;;;21.80;91.20;;;;;;10431413;28;20541;-68
2023/06/29 18:16:56;;;;;;;6.82;3.47;;;21.80;91.20;;;;;;10440524;28;20108;-68
2023/06/29 18:21:57;;;;;;;5.85;3.35;;;21.80;91.30;;;;;;10440272;28;20044;-68
2023/06/29 18:26:58;;;;;;;5.60;3.25;;;21.70;91.50;;;;;;10444331;28;20095;-68
2023/06/29 18:31:58;;;;;;;4.78;2.78;;;21.70;91.30;;;;;;10435524;28;20026;-68
2023/06/29 18:36:59;;;;;;;5.85;2.80;;;21.70;91.30;;;;;;10448431;28;20128;-68
2023/06/29 18:42:00;;;;;;;4.00;2.78;;;21.60;91.30;;;;;;10442447;28;20048;-68
2023/06/29 18:47:09;;;;;;;3.75;2.30;;;21.60;91.30;;;;;;10438380;28;20159;-68
2023/06/29 18:52:10;;;;;;;3.78;2.42;;;21.50;91.30;;;;;;10452096;28;20036;-68
2023/06/29 18:57:11;;;;;;;4.35;2.10;;;21.50;91.30;;;;;;10444487;28;20544;-68
2023/06/29 19:02:11;;;;;;;3.13;2.00;;;21.50;91.30;;;;;;10437916;28;20029;-68
2023/06/29 19:07:14;;;;;;;3.58;1.92;;;21.50;91.40;;;;;;10443648;28;20024;-68
2023/06/29 19:12:15;;;;;;;3.55;2.03;;;21.50;91.40;;;;;;10432495;28;20024;-68
2023/06/29 19:17:15;;;;;;;2.47;1.90;;;21.40;91.40;;;;;;10447533;28;20134;-68
2023/06/29 19:22:16;;;;;;;3.17;1.70;;;21.40;91.40;;;;;;10446742;28;20041;-68
2023/06/29 19:27:17;;;;;;;3.78;1.85;;;21.30;91.30;;;;;;10445061;28;20035;-68
2023/06/29 19:32:17;;;;;;;3.25;1.92;;;21.30;91.30;;;;;;10448875;28;20028;-68
2023/06/29 19:37:18;;;;;;;2.00;1.48;;;21.30;91.30;;;;;;10439165;28;20031;-68
2023/06/29 19:42:19;;;;;;;2.15;1.25;;;21.30;91.30;;;;;;10437843;28;20548;-68
2023/06/29 19:47:19;;;;;;;2.88;1.60;;;21.20;91.20;;;;;;10432205;28;20422;-68
2023/06/29 19:52:20;;;;;;;2.40;1.55;;;21.20;91.20;;;;;;10444805;28;20078;-68
2023/06/29 19:57:20;;;;;;;2.30;1.50;;;21.10;91.10;;;;;;10441545;28;20529;-68
2023/06/29 20:02:21;;;;;;;3.20;1.70;;;21.10;91.10;;;;;;10446255;28;20143;-67
2023/06/29 20:07:22;;;;;;;1.80;1.30;;;21.10;91.10;;;;;;10440350;28;20025;-67
2023/06/29 20:12:22;;;;;;;3.15;1.48;;;21.10;91.00;;;;;;10437943;28;20170;-66
2023/06/29 20:17:23;;;;;;;2.70;1.30;;;21.10;91.00;;;;;;10452885;28;20123;-67
2023/06/29 20:22:24;;;;;;;1.88;1.27;;;21.10;91.00;;;;;;10441822;28;20028;-66
2023/06/29 20:27:25;;;;;;;1.77;1.40;;;21.10;91.00;;;;;;10443484;28;20086;-66
2023/06/29 20:32:26;;;;;;;3.13;1.55;;;21.00;91.00;;;;;;10443163;28;20017;-66
2023/06/29 20:37:27;;;;;;;2.92;1.40;;;21.00;91.00;;;;;;10442269;28;20384;-66
2023/06/29 20:42:27;;;;;;;2.65;1.60;;;21.00;91.00;;;;;;10440551;28;20043;-66
2023/06/29 20:47:28;;;;;;;2.65;1.40;;;21.00;91.00;;;;;;10451837;28;20515;-65
2023/06/29 20:52:29;;;;;;;1.90;1.10;;;20.90;91.00;;;;;;10440120;28;20540;-65
2023/06/29 20:57:29;;;;;;;2.60;1.25;;;21.00;91.00;;;;;;10446771;28;20033;-65
2023/06/29 21:02:30;;;;;;;1.67;1.23;;;21.00;91.00;;;;;;10445516;28;20033;-66
2023/06/29 21:07:31;;;;;;;2.85;1.23;;;20.90;91.00;;;;;;10448844;28;20280;-66
2023/06/29 21:12:32;;;;;;;2.58;1.33;;;20.80;91.00;;;;;;10450916;28;20025;-66
2023/06/29 21:17:33;;;;;;;2.60;1.50;;;20.80;91.00;;;;;;10445761;28;20024;-65
2023/06/29 21:22:35;;;;;;;1.95;1.10;;;20.80;91.00;;;;;;10450034;28;20025;-66
2023/06/29 21:27:36;;;;;;;2.60;1.30;;;20.80;91.00;;;;;;10454146;28;20123;-66
2023/06/29 21:32:37;;;;;;;1.83;1.05;;;20.80;91.10;;;;;;10448234;28;20875;-66
2023/06/29 21:37:38;;;;;;;1.75;1.30;;;20.80;91.10;;;;;;10463527;28;20162;-65
2023/06/29 21:42:38;;;;;;;1.27;1.02;;;20.70;91.10;;;;;;10456098;28;20512;-65
2023/06/29 21:47:39;;;;;;;3.13;1.45;;;20.70;91.10;;;;;;10454476;28;20029;-66
2023/06/29 21:52:39;;;;;;;3.40;1.20;;;20.70;91.10;;;;;;10432677;28;20025;-66
2023/06/29 21:57:40;;;;;;;4.45;1.48;;;20.70;91.40;;;;;;10444362;28;20021;-65
2023/06/29 22:02:42;;;;;;;1.73;1.10;;;20.70;91.10;;;;;;10438948;28;20029;-65
2023/06/29 22:07:42;;;;;;;3.05;1.48;;;20.60;91.40;;;;;;10452017;28;20017;-65
2023/06/29 22:12:43;;;;;;;3.03;1.23;;;20.60;91.10;;;;;;10434433;28;20025;-65
2023/06/29 22:17:48;;;;;;;4.47;1.65;;;20.60;91.20;;;;;;10441071;28;20378;-66
2023/06/29 22:22:49;;;;;;;5.05;1.45;;;20.60;91.20;;;;;;10438878;28;20021;-67
2023/06/29 22:27:50;;;;;;;4.13;1.58;;;20.60;91.20;;;;;;10439176;28;20284;-66
2023/06/29 22:32:51;;;;;;;2.60;1.42;;;20.50;91.20;;;;;;10423955;28;20489;-66
2023/06/29 22:37:52;;;;;;;4.53;1.30;;;20.50;91.20;;;;;;10440056;28;20033;-66
2023/06/29 22:42:52;;;;;;;3.03;1.20;;;20.60;91.20;;;;;;10442168;28;20167;-67
2023/06/29 22:47:53;;;;;;;2.78;1.38;;;20.50;91.20;;;;;;10441774;28;20029;-66
2023/06/29 22:52:53;;;;;;;1.98;1.40;;;20.50;91.20;;;;;;10441549;28;20044;-65
2023/06/29 22:57:54;;;;;;;1.83;1.30;;;20.50;91.20;;;;;;10435845;28;20029;-65
2023/06/29 23:02:55;;;;;;;3.17;1.30;;;20.50;91.20;;;;;;10441962;28;20032;-67
2023/06/29 23:07:57;;;;;;;3.83;1.48;;;20.40;91.20;;;;;;10443042;28;20024;-66
2023/06/29 23:12:57;;;;;;;3.50;1.60;;;20.40;91.20;;;;;;10446380;28;20592;-67
2023/06/29 23:17:58;;;;;;;2.63;1.40;;;20.40;91.20;;;;;;10438177;28;20021;-66
2023/06/29 23:22:59;;;;;;;2.63;1.20;;;20.40;91.20;;;;;;10444526;28;20031;-67
2023/06/29 23:28:03;;;;;;;2.53;1.42;;;20.40;91.20;;;;;;10448035;28;20033;-65
2023/06/29 23:33:03;;;;;;;3.22;1.27;;;20.30;91.10;;;;;;10433891;28;20021;-65
2023/06/29 23:38:04;;;;;;;3.00;1.48;;;20.20;91.10;;;;;;10449086;28;20032;-66
2023/06/29 23:43:06;;;;;;;2.25;1.30;;;20.20;91.10;;;;;;10438439;28;20049;-67
2023/06/29 23:48:07;;;;;;;3.38;1.20;;;20.20;91.00;;;;;;10444546;28;20032;-65
2023/06/29 23:53:08;;;;;;;1.45;1.23;;;20.20;91.00;;;;;;10446015;28;20876;-65
2023/06/29 23:58:08;;;;;;;2.72;1.42;;;20.20;91.00;;;;;;10440824;28;20053;-66
